createdAt,value
2023-04-08T00:00:37.592Z,101978.44
2023-04-08T00:03:04.253Z,101978.34
2023-04-08T00:05:30.869Z,101976.72
2023-04-08T00:07:57.198Z,101976.88
2023-04-08T00:10:24.855Z,101982.97
2023-04-08T00:12:51.385Z,101997.69
2023-04-08T00:15:17.870Z,101997.47
2023-04-08T00:17:45.274Z,101992.38
2023-04-08T00:20:12.121Z,101980.19
2023-04-08T00:22:38.442Z,101983.81
2023-04-08T00:25:09.384Z,101984.63
2023-04-08T00:27:35.662Z,101986.41
2023-04-08T00:30:03.231Z,101985.53
2023-04-08T00:32:29.787Z,101978.66
2023-04-08T00:34:56.520Z,101983.91
2023-04-08T00:37:23.127Z,101982.91
2023-04-08T00:39:49.802Z,101991.50
2023-04-08T00:42:16.630Z,101984.31
2023-04-08T00:44:42.931Z,101980.94
2023-04-08T00:47:12.948Z,101986.03
2023-04-08T00:49:39.593Z,101989.69
2023-04-08T00:52:05.993Z,101985.19
2023-04-08T00:54:32.411Z,101988.31
2023-04-08T00:57:01.808Z,101991.81
2023-04-08T00:59:30.285Z,101995.13
2023-04-08T01:02:06.686Z,101991.78
2023-04-08T01:04:46.030Z,101988.41
2023-04-08T01:07:20.255Z,101993.56
2023-04-08T01:09:50.154Z,101986.03
2023-04-08T01:12:22.407Z,101988.63
2023-04-08T01:14:52.196Z,101989.50
2023-04-08T01:17:19.804Z,101987.75
2023-04-08T01:19:47.705Z,101994.34
2023-04-08T01:22:51.165Z,101986.03
2023-04-08T01:25:23.682Z,101982.59
2023-04-08T01:27:50.817Z,101985.75
2023-04-08T01:30:21.922Z,101983.16
2023-04-08T01:32:51.964Z,101978.84
2023-04-08T01:35:18.466Z,101978.16
2023-04-08T01:37:47.461Z,101983.53
2023-04-08T01:40:14.675Z,101980.66
2023-04-08T01:42:42.129Z,101983.38
2023-04-08T01:45:09.580Z,101984.97
2023-04-08T01:47:38.221Z,101988.25
2023-04-08T01:50:06.196Z,101985.75
2023-04-08T01:52:35.667Z,101979.84
2023-04-08T01:55:02.025Z,101978.06
2023-04-08T01:57:32.572Z,101972.66
2023-04-08T02:00:04.001Z,101977.13
2023-04-08T02:02:33.185Z,101976.19
2023-04-08T02:04:59.667Z,101976.47
2023-04-08T02:07:25.964Z,101967.31
2023-04-08T02:09:52.270Z,101979.25
2023-04-08T02:12:19.131Z,101969.91
2023-04-08T02:14:45.762Z,101972.47
2023-04-08T02:17:17.275Z,101963.16
2023-04-08T02:20:10.879Z,101964.50
2023-04-08T02:22:40.052Z,101964.44
2023-04-08T02:25:11.114Z,101961.63
2023-04-08T02:27:40.156Z,101956.63
2023-04-08T02:30:08.673Z,101956.59
2023-04-08T02:32:36.304Z,101970.09
2023-04-08T02:35:04.146Z,101967.56
2023-04-08T02:37:31.724Z,101968.84
2023-04-08T02:39:59.076Z,101969.78
2023-04-08T02:42:25.674Z,101973.22
2023-04-08T02:44:52.028Z,101973.22
2023-04-08T02:47:18.317Z,101984.31
2023-04-08T02:49:44.684Z,101969.47
2023-04-08T02:52:10.969Z,101979.03
2023-04-08T02:54:37.281Z,101985.88
2023-04-08T02:57:03.693Z,101983.13
2023-04-08T02:59:29.937Z,101984.03
2023-04-08T03:01:56.367Z,101974.72
2023-04-08T03:04:22.760Z,101985.03
2023-04-08T03:06:49.055Z,101975.78
2023-04-08T03:09:15.483Z,101986.22
2023-04-08T03:11:41.766Z,101984.41
2023-04-08T03:14:08.023Z,101992.94
2023-04-08T03:16:34.332Z,101995.91
2023-04-08T03:19:00.727Z,101984.75
2023-04-08T03:21:27.063Z,102001.91
2023-04-08T03:23:53.381Z,102001.69
2023-04-08T03:26:19.735Z,102006.03
2023-04-08T03:28:46.026Z,102011.38
2023-04-08T03:31:12.619Z,102009.59
2023-04-08T03:33:39.030Z,102014.47
2023-04-08T03:36:06.650Z,102015.50
2023-04-08T03:38:32.986Z,102014.72
2023-04-08T03:40:59.261Z,102015.66
2023-04-08T03:43:26.025Z,102020.75
2023-04-08T03:45:52.384Z,102019.03
2023-04-08T03:48:18.807Z,102015.59
2023-04-08T03:50:45.076Z,102013.78
2023-04-08T03:53:12.124Z,102012.06
2023-04-08T03:55:39.043Z,102009.59
2023-04-08T03:58:05.865Z,102020.75
2023-04-08T04:00:32.148Z,102014.59
2023-04-08T04:02:58.529Z,102021.63
2023-04-08T04:05:24.995Z,102022.31
2023-04-08T04:07:51.412Z,102022.31
2023-04-08T04:10:17.747Z,102030.16
2023-04-08T04:12:44.859Z,102027.66
2023-04-08T04:15:11.682Z,102029.59
2023-04-08T04:17:37.951Z,102029.44
2023-04-08T04:20:07.853Z,102032.28
2023-04-08T04:22:34.179Z,102030.41
2023-04-08T04:25:00.544Z,102034.94
2023-04-08T04:27:26.840Z,102040.75
2023-04-08T04:29:53.109Z,102045.91
2023-04-08T04:32:20.203Z,102040.00
2023-04-08T04:34:46.740Z,102043.31
2023-04-08T04:37:13.612Z,102040.75
2023-04-08T04:39:39.951Z,102049.31
2023-04-08T04:42:06.525Z,102060.41
2023-04-08T04:44:33.046Z,102049.25
2023-04-08T04:46:59.361Z,102053.53
2023-04-08T04:49:25.863Z,102062.06
2023-04-08T04:51:52.205Z,102054.63
2023-04-08T04:54:18.499Z,102065.75
2023-04-08T04:56:44.767Z,102059.66
2023-04-08T04:59:11.083Z,102069.31
2023-04-08T05:01:37.465Z,102068.53
2023-04-08T05:04:03.897Z,102060.09
2023-04-08T05:06:30.833Z,102070.91
2023-04-08T05:08:57.122Z,102076.94
2023-04-08T05:11:23.414Z,102077.81
2023-04-08T05:13:49.797Z,102081.31
2023-04-08T05:16:16.506Z,102081.84
2023-04-08T05:18:42.847Z,102080.31
2023-04-08T05:21:09.115Z,102086.31
2023-04-08T05:23:35.606Z,102086.06
2023-04-08T05:26:01.928Z,102090.59
2023-04-08T05:28:28.247Z,102089.66
2023-04-08T05:30:54.621Z,102093.13
2023-04-08T05:33:20.999Z,102097.34
2023-04-08T05:35:47.456Z,102091.47
2023-04-08T05:38:13.828Z,102094.16
2023-04-08T05:40:40.448Z,102101.28
2023-04-08T05:43:06.754Z,102100.28
2023-04-08T05:45:33.116Z,102097.94
2023-04-08T05:47:59.476Z,102106.44
2023-04-08T05:50:25.888Z,102108.00
2023-04-08T05:52:52.157Z,102104.22
2023-04-08T05:55:18.504Z,102117.19
2023-04-08T05:57:44.805Z,102117.97
2023-04-08T06:00:11.371Z,102111.19
2023-04-08T06:02:38.199Z,102117.91
2023-04-08T06:05:05.720Z,102114.44
2023-04-08T06:07:33.340Z,102107.47
2023-04-08T06:09:59.637Z,102120.31
2023-04-08T06:12:26.006Z,102117.75
2023-04-08T06:14:56.369Z,102134.09
2023-04-08T06:17:23.141Z,102130.53
2023-04-08T06:19:49.424Z,102135.63
2023-04-08T06:22:15.921Z,102138.28
2023-04-08T06:24:42.304Z,102139.44
2023-04-08T06:27:08.940Z,102149.25
2023-04-08T06:29:35.364Z,102144.09
2023-04-08T06:32:01.688Z,102143.31
2023-04-08T06:34:28.188Z,102141.84
2023-04-08T06:36:54.485Z,102149.66
2023-04-08T06:39:21.484Z,102152.34
2023-04-08T06:41:47.750Z,102149.03
2023-04-08T06:44:14.058Z,102148.28
2023-04-08T06:46:40.392Z,102158.09
2023-04-08T06:49:07.012Z,102161.72
2023-04-08T06:51:33.362Z,102166.63
2023-04-08T06:53:59.618Z,102166.81
2023-04-08T06:56:26.176Z,102163.63
2023-04-08T06:58:53.102Z,102165.44
2023-04-08T07:01:19.456Z,102163.69
2023-04-08T07:03:45.887Z,102165.75
2023-04-08T07:06:12.254Z,102167.69
2023-04-08T07:08:38.689Z,102180.41
2023-04-08T07:11:05.599Z,102181.91
2023-04-08T07:13:31.946Z,102185.06
2023-04-08T07:15:58.235Z,102180.72
2023-04-08T07:18:26.126Z,102179.97
2023-04-08T07:20:53.859Z,102188.00
2023-04-08T07:23:20.547Z,102189.53
2023-04-08T07:25:47.806Z,102184.28
2023-04-08T07:28:14.302Z,102191.97
2023-04-08T07:30:40.969Z,102191.19
2023-04-08T07:33:07.369Z,102196.25
2023-04-08T07:35:34.339Z,102187.19
2023-04-08T07:38:00.858Z,102191.41
2023-04-08T07:40:27.112Z,102199.06
2023-04-08T07:42:53.459Z,102199.53
2023-04-08T07:45:20.235Z,102203.78
2023-04-08T07:47:47.184Z,102204.69
2023-04-08T07:50:13.529Z,102205.72
2023-04-08T07:52:39.922Z,102214.28
2023-04-08T07:55:06.618Z,102218.53
2023-04-08T07:57:33.080Z,102217.41
2023-04-08T07:59:59.653Z,102215.94
2023-04-08T08:02:26.266Z,102227.25
2023-04-08T08:04:52.775Z,102231.81
2023-04-08T08:07:19.246Z,102222.34
2023-04-08T08:09:45.580Z,102233.34
2023-04-08T08:12:11.904Z,102231.81
2023-04-08T08:14:38.567Z,102233.81
2023-04-08T08:17:04.903Z,102237.53
2023-04-08T08:19:31.193Z,102238.00
2023-04-08T08:21:57.600Z,102237.81
2023-04-08T08:24:23.899Z,102236.13
2023-04-08T08:26:50.545Z,102242.41
2023-04-08T08:29:16.816Z,102240.06
2023-04-08T08:31:43.134Z,102244.16
2023-04-08T08:34:09.655Z,102248.50
2023-04-08T08:36:36.182Z,102242.75
2023-04-08T08:39:02.786Z,102254.97
2023-04-08T08:41:35.082Z,102251.06
2023-04-08T08:44:03.112Z,102257.50
2023-04-08T08:46:29.756Z,102247.66
2023-04-08T08:48:56.936Z,102254.78
2023-04-08T08:51:24.108Z,102255.06
2023-04-08T08:53:50.916Z,102258.53
2023-04-08T08:56:18.955Z,102266.69
2023-04-08T08:58:47.214Z,102264.13
2023-04-08T09:01:33.618Z,102262.47
2023-04-08T09:04:11.262Z,102267.28
2023-04-08T09:06:38.639Z,102267.75
2023-04-08T09:09:10.185Z,102261.25
2023-04-08T09:11:38.854Z,102272.72
2023-04-08T09:14:06.951Z,102273.09
2023-04-08T09:16:33.673Z,102276.13
2023-04-08T09:19:10.991Z,102279.69
2023-04-08T09:21:38.644Z,102279.00
2023-04-08T09:24:05.206Z,102280.34
2023-04-08T09:26:31.573Z,102290.72
2023-04-08T09:29:18.252Z,102292.81
2023-04-08T09:31:57.811Z,102295.56
2023-04-08T09:34:25.559Z,102293.97
2023-04-08T09:36:52.751Z,102298.00
2023-04-08T09:39:19.545Z,102297.31
2023-04-08T09:41:49.343Z,102298.00
2023-04-08T09:44:19.273Z,102302.22
2023-04-08T09:46:51.702Z,102293.50
2023-04-08T09:49:27.154Z,102299.56
2023-04-08T09:52:15.564Z,102296.09
2023-04-08T09:54:52.304Z,102301.28
2023-04-08T09:57:43.716Z,102301.25
2023-04-08T10:00:15.299Z,102304.22
2023-04-08T10:03:06.303Z,102307.72
2023-04-08T10:05:36.516Z,102313.78
2023-04-08T10:08:03.426Z,102305.31
2023-04-08T10:10:30.150Z,102309.03
2023-04-08T10:12:56.810Z,102308.06
2023-04-08T10:15:31.366Z,102309.00
2023-04-08T10:18:06.832Z,102303.75
2023-04-08T10:20:36.386Z,102312.47
2023-04-08T10:23:07.513Z,102312.28
2023-04-08T10:25:41.196Z,102314.34
2023-04-08T10:28:19.288Z,102313.66
2023-04-08T10:30:50.221Z,102308.66
2023-04-08T10:33:25.419Z,102310.13
2023-04-08T10:36:00.331Z,102309.56
2023-04-08T10:38:27.203Z,102313.34
2023-04-08T10:40:54.329Z,102311.69
2023-04-08T10:43:20.709Z,102310.13
2023-04-08T10:45:50.978Z,102308.16
2023-04-08T10:48:22.940Z,102305.56
2023-04-08T10:50:59.776Z,102302.88
2023-04-08T10:53:31.253Z,102306.59
2023-04-08T10:56:08.707Z,102310.84
2023-04-08T10:58:36.745Z,102310.91
2023-04-08T11:01:05.821Z,102305.03
2023-04-08T11:03:34.834Z,102308.66
2023-04-08T11:06:03.586Z,102303.66
2023-04-08T11:08:32.158Z,102309.06
2023-04-08T11:11:01.559Z,102316.69
2023-04-08T11:13:28.745Z,102313.69
2023-04-08T11:15:56.372Z,102310.91
2023-04-08T11:18:23.476Z,102314.00
2023-04-08T11:20:53.697Z,102310.69
2023-04-08T11:23:20.431Z,102311.66
2023-04-08T11:25:47.678Z,102309.38
2023-04-08T11:28:14.506Z,102303.50
2023-04-08T11:30:41.537Z,102302.41
2023-04-08T11:33:08.086Z,102306.06
2023-04-08T11:35:34.531Z,102301.50
2023-04-08T11:38:05.202Z,102303.25
2023-04-08T11:40:31.557Z,102305.38
2023-04-08T11:42:58.024Z,102310.78
2023-04-08T11:45:26.009Z,102304.19
2023-04-08T11:47:53.088Z,102308.75
2023-04-08T11:50:24.697Z,102306.00
2023-04-08T11:52:52.536Z,102306.94
2023-04-08T11:55:24.782Z,102307.66
2023-04-08T11:57:52.596Z,102310.31
2023-04-08T12:00:19.603Z,102312.38
2023-04-08T12:02:49.892Z,102310.28
2023-04-08T12:05:16.623Z,102315.00
2023-04-08T12:07:43.708Z,102315.16
2023-04-08T12:10:11.503Z,102312.41
2023-04-08T12:12:38.388Z,102314.38
2023-04-08T12:15:05.560Z,102314.88
2023-04-08T12:17:31.903Z,102314.78
2023-04-08T12:19:58.373Z,102315.81
2023-04-08T12:22:24.880Z,102325.38
2023-04-08T12:24:51.174Z,102323.72
2023-04-08T12:27:17.564Z,102322.00
2023-04-08T12:29:43.921Z,102323.66
2023-04-08T12:32:10.318Z,102319.03
2023-04-08T12:34:36.672Z,102317.34
2023-04-08T12:37:03.316Z,102326.38
2023-04-08T12:39:29.581Z,102320.50
2023-04-08T12:41:56.756Z,102331.19
2023-04-08T12:44:23.028Z,102328.50
2023-04-08T12:46:49.428Z,102335.72
2023-04-08T12:49:16.099Z,102329.09
2023-04-08T12:51:42.630Z,102330.41
2023-04-08T12:54:09.027Z,102333.72
2023-04-08T12:56:35.487Z,102334.94
2023-04-08T12:59:01.918Z,102327.81
2023-04-08T13:01:28.388Z,102323.50
2023-04-08T13:03:55.504Z,102334.53
2023-04-08T13:06:22.183Z,102331.94
2023-04-08T13:08:48.850Z,102332.88
2023-04-08T13:11:15.444Z,102332.75
2023-04-08T13:13:41.879Z,102338.09
2023-04-08T13:16:09.323Z,102340.28
2023-04-08T13:18:36.556Z,102325.59
2023-04-08T13:21:02.868Z,102335.94
2023-04-08T13:23:29.332Z,102328.22
2023-04-08T13:25:55.714Z,102331.50
2023-04-08T13:28:22.142Z,102329.19
2023-04-08T13:30:48.421Z,102334.22
2023-04-08T13:33:14.856Z,102340.50
2023-04-08T13:35:41.362Z,102335.19
2023-04-08T13:38:08.418Z,102334.22
2023-04-08T13:40:34.950Z,102333.16
2023-04-08T13:43:02.099Z,102333.38
2023-04-08T13:45:28.442Z,102336.97
2023-04-08T13:47:54.928Z,102335.09
2023-04-08T13:50:21.460Z,102335.75
2023-04-08T13:52:47.849Z,102334.88
2023-04-08T13:55:14.159Z,102328.84
2023-04-08T13:57:40.590Z,102331.00
2023-04-08T14:00:07.853Z,102330.72
2023-04-08T14:02:34.437Z,102327.88
2023-04-08T14:05:00.784Z,102327.97
2023-04-08T14:07:27.108Z,102322.78
2023-04-08T14:09:53.493Z,102327.25
2023-04-08T14:12:19.875Z,102330.94
2023-04-08T14:14:46.221Z,102327.09
2023-04-08T14:17:12.682Z,102323.84
2023-04-08T14:19:39.104Z,102318.97
2023-04-08T14:22:05.445Z,102320.06
2023-04-08T14:24:31.725Z,102314.97
2023-04-08T14:26:58.153Z,102315.47
2023-04-08T14:29:26.528Z,102318.97
2023-04-08T14:31:53.954Z,102318.56
2023-04-08T14:34:20.296Z,102317.94
2023-04-08T14:36:47.200Z,102323.09
2023-04-08T14:39:13.570Z,102322.66
2023-04-08T14:41:40.568Z,102324.09
2023-04-08T14:44:06.927Z,102319.72
2023-04-08T14:46:33.457Z,102319.53
2023-04-08T14:49:00.816Z,102320.97
2023-04-08T14:51:27.084Z,102315.22
2023-04-08T14:53:53.347Z,102318.81
2023-04-08T14:56:19.701Z,102317.69
2023-04-08T14:58:45.987Z,102317.03
2023-04-08T15:01:12.315Z,102322.19
2023-04-08T15:03:38.755Z,102310.97
2023-04-08T15:06:06.100Z,102311.81
2023-04-08T15:08:34.774Z,102316.16
2023-04-08T15:11:01.051Z,102313.59
2023-04-08T15:13:27.367Z,102316.41
2023-04-08T15:15:53.907Z,102318.47
2023-04-08T15:18:20.315Z,102314.22
2023-04-08T15:20:46.974Z,102316.75
2023-04-08T15:23:13.262Z,102316.19
2023-04-08T15:25:39.659Z,102318.84
2023-04-08T15:28:05.996Z,102320.44
2023-04-08T15:30:35.380Z,102327.47
2023-04-08T15:33:03.578Z,102331.13
2023-04-08T15:35:30.523Z,102328.59
2023-04-08T15:37:56.990Z,102342.06
2023-04-08T15:40:23.523Z,102337.78
2023-04-08T15:42:49.825Z,102336.19
2023-04-08T15:45:16.144Z,102338.84
2023-04-08T15:47:42.547Z,102344.44
2023-04-08T15:50:09.929Z,102347.03
2023-04-08T15:52:36.250Z,102333.16
2023-04-08T15:55:02.724Z,102331.63
2023-04-08T15:57:30.952Z,102340.47
2023-04-08T15:59:57.255Z,102334.34
2023-04-08T16:02:23.761Z,102338.81
2023-04-08T16:04:50.569Z,102335.94
2023-04-08T16:07:17.147Z,102343.78
2023-04-08T16:09:43.552Z,102341.22
2023-04-08T16:12:10.813Z,102343.78
2023-04-08T16:14:37.104Z,102341.28
2023-04-08T16:17:03.595Z,102337.69
2023-04-08T16:19:30.940Z,102340.25
2023-04-08T16:21:57.249Z,102333.41
2023-04-08T16:24:23.976Z,102335.09
2023-04-08T16:26:50.444Z,102333.00
2023-04-08T16:29:16.750Z,102332.63
2023-04-08T16:31:43.154Z,102341.75
2023-04-08T16:34:09.524Z,102343.72
2023-04-08T16:36:35.835Z,102347.72
2023-04-08T16:39:02.208Z,102339.94
2023-04-08T16:41:28.599Z,102348.59
2023-04-08T16:43:54.972Z,102351.50
2023-04-08T16:46:21.922Z,102349.22
2023-04-08T16:48:48.476Z,102355.25
2023-04-08T16:51:14.869Z,102348.34
2023-04-08T16:53:41.277Z,102350.13
2023-04-08T16:56:16.895Z,102343.25
2023-04-08T16:58:43.669Z,102350.41
2023-04-08T17:01:10.877Z,102348.69
2023-04-08T17:03:37.673Z,102343.69
2023-04-08T17:06:08.838Z,102358.41
2023-04-08T17:08:35.418Z,102349.03
2023-04-08T17:11:14.942Z,102356.72
2023-04-08T17:13:43.735Z,102353.84
2023-04-08T17:16:15.741Z,102353.63
2023-04-08T17:18:42.578Z,102360.56
2023-04-08T17:21:09.568Z,102354.25
2023-04-08T17:23:36.138Z,102355.16
2023-04-08T17:26:09.910Z,102353.47
2023-04-08T17:28:36.459Z,102352.91
2023-04-08T17:31:03.008Z,102352.94
2023-04-08T17:33:29.395Z,102361.50
2023-04-08T17:35:55.750Z,102358.13
2023-04-08T17:38:22.281Z,102357.06
2023-04-08T17:40:48.584Z,102356.97
2023-04-08T17:43:14.859Z,102354.22
2023-04-08T17:45:41.423Z,102365.31
2023-04-08T17:48:09.658Z,102360.22
2023-04-08T17:50:36.159Z,102366.34
2023-04-08T17:53:02.720Z,102359.41
2023-04-08T17:55:29.141Z,102363.03
2023-04-08T17:57:55.833Z,102363.72
2023-04-08T18:00:22.321Z,102360.19
2023-04-08T18:02:50.301Z,102370.53
2023-04-08T18:05:16.742Z,102359.34
2023-04-08T18:07:43.224Z,102360.19
2023-04-08T18:10:09.711Z,102363.66
2023-04-08T18:12:36.045Z,102380.13
2023-04-08T18:15:02.772Z,102369.78
2023-04-08T18:17:29.184Z,102368.91
2023-04-08T18:19:55.549Z,102375.75
2023-04-08T18:22:22.489Z,102371.34
2023-04-08T18:24:49.270Z,102375.28
2023-04-08T18:27:16.532Z,102381.53
2023-04-08T18:29:42.880Z,102386.66
2023-04-08T18:32:09.240Z,102396.91
2023-04-08T18:34:35.805Z,102391.63
2023-04-08T18:37:02.102Z,102397.78
2023-04-08T18:39:28.461Z,102401.34
2023-04-08T18:41:54.764Z,102398.88
2023-04-08T18:44:21.148Z,102410.09
2023-04-08T18:46:47.534Z,102405.44
2023-04-08T18:49:14.002Z,102411.59
2023-04-08T18:51:42.205Z,102422.78
2023-04-08T18:54:13.005Z,102414.97
2023-04-08T18:56:39.347Z,102419.53
2023-04-08T18:59:05.643Z,102415.13
2023-04-08T19:01:33.006Z,102414.34
2023-04-08T19:03:59.446Z,102409.94
2023-04-08T19:06:26.054Z,102411.69
2023-04-08T19:08:52.316Z,102413.13
2023-04-08T19:11:18.633Z,102412.38
2023-04-08T19:13:48.130Z,102415.66
2023-04-08T19:16:14.488Z,102413.25
2023-04-08T19:18:40.806Z,102421.88
2023-04-08T19:21:07.069Z,102411.44
2023-04-08T19:23:33.364Z,102415.81
2023-04-08T19:26:03.732Z,102405.28
2023-04-08T19:28:30.207Z,102409.56
2023-04-08T19:30:56.753Z,102412.19
2023-04-08T19:33:23.538Z,102410.47
2023-04-08T19:35:49.807Z,102414.56
2023-04-08T19:38:16.171Z,102404.25
2023-04-08T19:40:42.554Z,102407.19
2023-04-08T19:43:08.895Z,102405.13
2023-04-08T19:45:35.553Z,102412.19
2023-04-08T19:48:01.941Z,102412.28
2023-04-08T19:50:28.288Z,102416.78
2023-04-08T19:52:54.588Z,102416.13
2023-04-08T19:55:21.653Z,102410.97
2023-04-08T19:57:48.511Z,102415.28
2023-04-08T20:00:15.193Z,102410.91
2023-04-08T20:02:41.629Z,102413.13
2023-04-08T20:05:14.483Z,102411.25
2023-04-08T20:07:40.833Z,102420.59
2023-04-08T20:10:08.120Z,102418.22
2023-04-08T20:12:34.542Z,102420.72
2023-04-08T20:15:01.107Z,102423.13
2023-04-08T20:17:27.877Z,102421.44
2023-04-08T20:19:54.385Z,102424.22
2023-04-08T20:22:20.846Z,102425.13
2023-04-08T20:24:50.474Z,102426.88
2023-04-08T20:27:18.528Z,102425.06
2023-04-08T20:29:45.023Z,102427.47
2023-04-08T20:32:11.469Z,102429.81
2023-04-08T20:34:37.811Z,102429.09
2023-04-08T20:37:04.380Z,102429.13
2023-04-08T20:39:31.798Z,102431.69
2023-04-08T20:41:58.984Z,102434.38
2023-04-08T20:44:28.751Z,102436.97
2023-04-08T20:46:55.109Z,102446.69
2023-04-08T20:49:21.532Z,102441.97
2023-04-08T20:51:47.959Z,102442.22
2023-04-08T20:54:14.509Z,102442.91
2023-04-08T20:56:40.835Z,102446.13
2023-04-08T20:59:07.255Z,102446.03
2023-04-08T21:01:33.921Z,102443.63
2023-04-08T21:04:00.645Z,102435.16
2023-04-08T21:06:27.623Z,102439.38
2023-04-08T21:08:54.136Z,102441.34
2023-04-08T21:11:21.012Z,102440.69
2023-04-08T21:13:49.092Z,102439.28
2023-04-08T21:16:16.335Z,102441.72
2023-04-08T21:18:42.772Z,102440.94
2023-04-08T21:21:11.216Z,102441.72
2023-04-08T21:23:37.497Z,102438.25
2023-04-08T21:26:03.865Z,102436.81
2023-04-08T21:28:30.238Z,102435.00
2023-04-08T21:30:56.523Z,102436.91
2023-04-08T21:33:22.979Z,102441.44
2023-04-08T21:35:49.367Z,102440.16
2023-04-08T21:38:16.051Z,102447.13
2023-04-08T21:40:42.516Z,102443.97
2023-04-08T21:43:08.802Z,102441.38
2023-04-08T21:45:35.322Z,102446.09
2023-04-08T21:48:01.665Z,102450.31
2023-04-08T21:50:28.024Z,102447.69
2023-04-08T21:52:54.319Z,102448.59
2023-04-08T21:55:20.698Z,102448.66
2023-04-08T21:57:48.280Z,102450.34
2023-04-08T22:00:15.074Z,102451.13
2023-04-08T22:02:41.547Z,102447.75
2023-04-08T22:05:08.929Z,102445.94
2023-04-08T22:07:35.224Z,102445.16
2023-04-08T22:10:02.144Z,102445.94
2023-04-08T22:12:30.363Z,102446.00
2023-04-08T22:14:57.016Z,102443.19
2023-04-08T22:17:23.451Z,102445.06
2023-04-08T22:19:49.769Z,102449.41
2023-04-08T22:22:16.062Z,102447.84
2023-04-08T22:24:42.384Z,102445.41
2023-04-08T22:27:08.691Z,102447.84
2023-04-08T22:29:35.118Z,102440.94
2023-04-08T22:32:01.466Z,102448.38
2023-04-08T22:34:27.772Z,102445.31
2023-04-08T22:36:54.273Z,102448.03
2023-04-08T22:39:20.537Z,102447.94
2023-04-08T22:41:47.002Z,102442.75
2023-04-08T22:44:13.291Z,102446.28
2023-04-08T22:46:39.695Z,102443.69
2023-04-08T22:49:06.156Z,102437.56
2023-04-08T22:51:32.553Z,102442.66
2023-04-08T22:53:58.846Z,102444.56
2023-04-08T22:56:27.951Z,102447.94
2023-04-08T22:58:54.711Z,102449.47
2023-04-08T23:01:21.911Z,102446.81
2023-04-08T23:03:49.273Z,102447.69
2023-04-08T23:06:16.587Z,102457.94
2023-04-08T23:08:42.959Z,102451.88
2023-04-08T23:11:09.410Z,102452.25
2023-04-08T23:13:35.836Z,102450.59
2023-04-08T23:16:02.338Z,102455.69
2023-04-08T23:18:28.697Z,102452.03
2023-04-08T23:20:56.572Z,102455.44
2023-04-08T23:23:24.701Z,102453.09
2023-04-08T23:25:51.623Z,102457.41
2023-04-08T23:28:18.057Z,102452.06
2023-04-08T23:30:44.409Z,102453.69
2023-04-08T23:33:10.932Z,102444.81
2023-04-08T23:35:39.544Z,102448.34
2023-04-08T23:38:05.975Z,102445.63
2023-04-08T23:40:32.420Z,102444.47
2023-04-08T23:42:58.748Z,102442.25
2023-04-08T23:45:25.183Z,102447.66
2023-04-08T23:47:51.700Z,102442.50
2023-04-08T23:50:20.065Z,102439.00
2023-04-08T23:52:46.410Z,102438.78
2023-04-08T23:55:12.820Z,102442.94
2023-04-08T23:57:42.511Z,102448.94
